sensor_id;sensor_type;location;lat;lon;timestamp;pressure;altitude;pressure_sealevel;temperature;humidity
53506;BME280;39388;50.936;6.848;2022-09-13T00:00:52;100467.53;;;19.00;64.23
53506;BME280;39388;50.936;6.848;2022-09-13T00:03:23;100460.03;;;18.92;64.28
53506;BME280;39388;50.936;6.848;2022-09-13T00:05:53;100464.47;;;18.90;64.31
53506;BME280;39388;50.936;6.848;2022-09-13T00:08:24;100472.31;;;18.90;64.27
53506;BME280;39388;50.936;6.848;2022-09-13T00:10:54;100486.16;;;18.92;64.47
53506;BME280;39388;50.936;6.848;2022-09-13T00:13:24;100479.34;;;18.88;64.62
53506;BME280;39388;50.936;6.848;2022-09-13T00:15:55;100461.13;;;18.86;64.66
53506;BME280;39388;50.936;6.848;2022-09-13T00:18:28;100445.78;;;18.78;64.82
53506;BME280;39388;50.936;6.848;2022-09-13T00:21:10;100453.47;;;18.81;64.96
53506;BME280;39388;50.936;6.848;2022-09-13T00:23:45;100451.88;;;18.79;65.06
53506;BME280;39388;50.936;6.848;2022-09-13T00:26:19;100450.25;;;18.76;65.03
53506;BME280;39388;50.936;6.848;2022-09-13T00:28:52;100444.47;;;18.68;65.27
53506;BME280;39388;50.936;6.848;2022-09-13T00:31:23;100456.59;;;18.71;65.46
53506;BME280;39388;50.936;6.848;2022-09-13T00:33:54;100451.41;;;18.69;65.21
53506;BME280;39388;50.936;6.848;2022-09-13T00:36:26;100449.72;;;18.68;65.42
53506;BME280;39388;50.936;6.848;2022-09-13T00:38:56;100443.84;;;18.63;65.54
53506;BME280;39388;50.936;6.848;2022-09-13T00:41:27;100448.34;;;18.59;65.45
53506;BME280;39388;50.936;6.848;2022-09-13T00:43:59;100450.03;;;18.60;65.72
53506;BME280;39388;50.936;6.848;2022-09-13T00:46:45;100470.59;;;18.68;66.07
53506;BME280;39388;50.936;6.848;2022-09-13T00:49:30;100467.94;;;18.70;66.06
53506;BME280;39388;50.936;6.848;2022-09-13T00:52:06;100468.00;;;18.68;65.85
53506;BME280;39388;50.936;6.848;2022-09-13T00:55:11;100466.28;;;18.67;65.99
53506;BME280;39388;50.936;6.848;2022-09-13T00:57:43;100456.03;;;18.62;66.08
53506;BME280;39388;50.936;6.848;2022-09-13T01:00:17;100462.97;;;18.63;66.18
53506;BME280;39388;50.936;6.848;2022-09-13T01:03:01;100461.47;;;18.58;66.43
53506;BME280;39388;50.936;6.848;2022-09-13T01:05:43;100458.97;;;18.55;66.58
53506;BME280;39388;50.936;6.848;2022-09-13T01:08:15;100459.19;;;18.50;66.41
53506;BME280;39388;50.936;6.848;2022-09-13T01:10:52;100451.75;;;18.41;66.44
53506;BME280;39388;50.936;6.848;2022-09-13T01:13:28;100467.25;;;18.44;66.84
53506;BME280;39388;50.936;6.848;2022-09-13T01:16:01;100458.66;;;18.42;67.14
53506;BME280;39388;50.936;6.848;2022-09-13T01:18:31;100464.91;;;18.38;67.19
53506;BME280;39388;50.936;6.848;2022-09-13T01:33:09;100450.53;;;18.27;67.88
53506;BME280;39388;50.936;6.848;2022-09-13T01:44:13;100469.03;;;18.21;68.47
53506;BME280;39388;50.936;6.848;2022-09-13T01:47:02;100461.31;;;18.18;68.09
53506;BME280;39388;50.936;6.848;2022-09-13T01:49:52;100449.78;;;18.24;68.13
53506;BME280;39388;50.936;6.848;2022-09-13T01:52:40;100448.81;;;18.26;67.95
53506;BME280;39388;50.936;6.848;2022-09-13T01:58:11;100440.69;;;18.34;67.74
53506;BME280;39388;50.936;6.848;2022-09-13T02:01:13;100436.38;;;18.33;67.81
53506;BME280;39388;50.936;6.848;2022-09-13T02:04:06;100445.13;;;18.32;67.92
53506;BME280;39388;50.936;6.848;2022-09-13T02:06:42;100434.88;;;18.27;67.57
53506;BME280;39388;50.936;6.848;2022-09-13T02:09:19;100430.56;;;18.26;67.71
53506;BME280;39388;50.936;6.848;2022-09-13T02:11:56;100434.09;;;18.25;67.61
53506;BME280;39388;50.936;6.848;2022-09-13T02:14:36;100426.38;;;18.22;67.56
53506;BME280;39388;50.936;6.848;2022-09-13T02:17:12;100423.56;;;18.27;67.36
53506;BME280;39388;50.936;6.848;2022-09-13T02:22:53;100419.25;;;18.26;67.86
53506;BME280;39388;50.936;6.848;2022-09-13T02:25:26;100408.09;;;18.22;67.74
53506;BME280;39388;50.936;6.848;2022-09-13T02:27:59;100416.53;;;18.29;67.64
53506;BME280;39388;50.936;6.848;2022-09-13T02:30:30;100417.31;;;18.31;67.40
53506;BME280;39388;50.936;6.848;2022-09-13T02:33:09;100415.53;;;18.31;67.30
53506;BME280;39388;50.936;6.848;2022-09-13T02:35:47;100411.19;;;18.32;67.41
53506;BME280;39388;50.936;6.848;2022-09-13T02:38:26;100406.88;;;18.31;67.43
53506;BME280;39388;50.936;6.848;2022-09-13T02:49:48;100418.84;;;18.37;67.75
53506;BME280;39388;50.936;6.848;2022-09-13T02:58:21;100422.94;;;18.42;68.02
53506;BME280;39388;50.936;6.848;2022-09-13T03:00:54;100420.47;;;18.39;67.62
53506;BME280;39388;50.936;6.848;2022-09-13T03:03:24;100425.50;;;18.44;67.75
53506;BME280;39388;50.936;6.848;2022-09-13T03:05:55;100421.25;;;18.41;68.47
53506;BME280;39388;50.936;6.848;2022-09-13T03:08:26;100429.00;;;18.43;67.95
53506;BME280;39388;50.936;6.848;2022-09-13T03:13:44;100428.97;;;18.44;67.99
53506;BME280;39388;50.936;6.848;2022-09-13T03:27:50;100406.59;;;18.39;68.20
53506;BME280;39388;50.936;6.848;2022-09-13T03:30:21;100411.72;;;18.40;68.32
53506;BME280;39388;50.936;6.848;2022-09-13T03:38:18;100393.69;;;18.34;68.75
53506;BME280;39388;50.936;6.848;2022-09-13T03:40:56;100398.75;;;18.39;68.61
53506;BME280;39388;50.936;6.848;2022-09-13T03:43:30;100399.53;;;18.41;69.01
53506;BME280;39388;50.936;6.848;2022-09-13T03:46:11;100402.06;;;18.42;68.99
53506;BME280;39388;50.936;6.848;2022-09-13T03:48:44;100402.16;;;18.41;68.94
53506;BME280;39388;50.936;6.848;2022-09-13T03:51:16;100394.44;;;18.38;69.03
53506;BME280;39388;50.936;6.848;2022-09-13T03:53:51;100402.06;;;18.42;69.29
53506;BME280;39388;50.936;6.848;2022-09-13T03:56:25;100376.28;;;18.34;69.65
53506;BME280;39388;50.936;6.848;2022-09-13T03:58:56;100380.59;;;18.35;69.71
53506;BME280;39388;50.936;6.848;2022-09-13T04:01:26;100383.22;;;18.35;69.73
53506;BME280;39388;50.936;6.848;2022-09-13T04:03:57;100382.38;;;18.35;69.98
53506;BME280;39388;50.936;6.848;2022-09-13T04:06:28;100378.00;;;18.35;69.80
53506;BME280;39388;50.936;6.848;2022-09-13T04:08:58;100383.13;;;18.37;70.15
53506;BME280;39388;50.936;6.848;2022-09-13T04:11:29;100400.28;;;18.43;69.95
53506;BME280;39388;50.936;6.848;2022-09-13T04:14:01;100405.50;;;18.43;70.08
53506;BME280;39388;50.936;6.848;2022-09-13T04:16:32;100402.00;;;18.44;69.59
53506;BME280;39388;50.936;6.848;2022-09-13T04:19:03;100407.41;;;18.39;70.28
53506;BME280;39388;50.936;6.848;2022-09-13T04:21:33;100407.38;;;18.41;70.11
53506;BME280;39388;50.936;6.848;2022-09-13T04:24:04;100415.19;;;18.41;70.48
53506;BME280;39388;50.936;6.848;2022-09-13T04:26:35;100416.94;;;18.40;70.31
53506;BME280;39388;50.936;6.848;2022-09-13T04:29:05;100413.50;;;18.40;70.36
53506;BME280;39388;50.936;6.848;2022-09-13T04:31:36;100413.44;;;18.41;70.69
53506;BME280;39388;50.936;6.848;2022-09-13T04:34:07;100406.63;;;18.37;70.67
53506;BME280;39388;50.936;6.848;2022-09-13T04:36:37;100415.31;;;18.38;70.94
53506;BME280;39388;50.936;6.848;2022-09-13T04:39:09;100418.78;;;18.38;71.27
53506;BME280;39388;50.936;6.848;2022-09-13T04:41:43;100406.88;;;18.31;71.40
53506;BME280;39388;50.936;6.848;2022-09-13T04:44:17;100407.72;;;18.31;71.54
53506;BME280;39388;50.936;6.848;2022-09-13T04:46:47;100417.97;;;18.36;71.67
53506;BME280;39388;50.936;6.848;2022-09-13T04:49:18;100420.59;;;18.36;72.02
53506;BME280;39388;50.936;6.848;2022-09-13T04:51:49;100421.38;;;18.38;71.83
53506;BME280;39388;50.936;6.848;2022-09-13T04:54:19;100411.22;;;18.30;71.98
53506;BME280;39388;50.936;6.848;2022-09-13T04:56:51;100420.59;;;18.36;72.54
53506;BME280;39388;50.936;6.848;2022-09-13T04:59:21;100424.00;;;18.38;72.21
53506;BME280;39388;50.936;6.848;2022-09-13T05:01:51;100422.25;;;18.39;72.47
53506;BME280;39388;50.936;6.848;2022-09-13T05:04:22;100415.31;;;18.38;72.47
53506;BME280;39388;50.936;6.848;2022-09-13T05:06:52;100427.47;;;18.39;72.39
53506;BME280;39388;50.936;6.848;2022-09-13T05:09:23;100409.41;;;18.32;72.58
53506;BME280;39388;50.936;6.848;2022-09-13T05:11:53;100420.59;;;18.36;72.61
53506;BME280;39388;50.936;6.848;2022-09-13T05:14:23;100426.47;;;18.41;72.46
53506;BME280;39388;50.936;6.848;2022-09-13T05:16:54;100423.94;;;18.40;72.37
53506;BME280;39388;50.936;6.848;2022-09-13T05:19:24;100422.38;;;18.35;72.51
53506;BME280;39388;50.936;6.848;2022-09-13T05:21:55;100421.34;;;18.40;72.45
53506;BME280;39388;50.936;6.848;2022-09-13T05:24:25;100420.34;;;18.42;72.41
53506;BME280;39388;50.936;6.848;2022-09-13T05:26:55;100427.25;;;18.43;72.22
53506;BME280;39388;50.936;6.848;2022-09-13T05:29:26;100423.75;;;18.44;72.35
53506;BME280;39388;50.936;6.848;2022-09-13T05:31:56;100429.88;;;18.43;72.29
53506;BME280;39388;50.936;6.848;2022-09-13T05:34:27;100421.97;;;18.45;71.88
53506;BME280;39388;50.936;6.848;2022-09-13T05:36:58;100414.09;;;18.46;72.23
53506;BME280;39388;50.936;6.848;2022-09-13T05:39:29;100412.31;;;18.47;71.97
53506;BME280;39388;50.936;6.848;2022-09-13T05:41:59;100408.88;;;18.46;71.91
53506;BME280;39388;50.936;6.848;2022-09-13T05:44:29;100411.41;;;18.48;71.99
53506;BME280;39388;50.936;6.848;2022-09-13T05:47:00;100418.25;;;18.50;71.75
53506;BME280;39388;50.936;6.848;2022-09-13T05:49:30;100420.09;;;18.48;71.90
53506;BME280;39388;50.936;6.848;2022-09-13T05:52:01;100416.63;;;18.48;71.92
53506;BME280;39388;50.936;6.848;2022-09-13T05:54:31;100414.78;;;18.50;71.79
53506;BME280;39388;50.936;6.848;2022-09-13T05:57:03;100412.84;;;18.55;72.00
53506;BME280;39388;50.936;6.848;2022-09-13T05:59:33;100406.56;;;18.59;72.01
53506;BME280;39388;50.936;6.848;2022-09-13T06:02:04;100409.13;;;18.61;72.16
53506;BME280;39388;50.936;6.848;2022-09-13T06:04:34;100409.97;;;18.61;71.79
53506;BME280;39388;50.936;6.848;2022-09-13T06:07:04;100405.44;;;18.65;71.79
53506;BME280;39388;50.936;6.848;2022-09-13T06:09:35;100415.72;;;18.70;71.69
53506;BME280;39388;50.936;6.848;2022-09-13T06:12:05;100411.31;;;18.70;71.46
53506;BME280;39388;50.936;6.848;2022-09-13T06:14:36;100417.19;;;18.75;71.33
53506;BME280;39388;50.936;6.848;2022-09-13T06:17:06;100421.44;;;18.78;71.27
53506;BME280;39388;50.936;6.848;2022-09-13T06:19:36;100414.44;;;18.78;71.10
53506;BME280;39388;50.936;6.848;2022-09-13T06:22:08;100423.72;;;18.86;70.78
53506;BME280;39388;50.936;6.848;2022-09-13T06:24:39;100421.88;;;18.88;70.74
53506;BME280;39388;50.936;6.848;2022-09-13T06:27:09;100414.75;;;18.91;70.99
53506;BME280;39388;50.936;6.848;2022-09-13T06:29:39;100410.44;;;18.90;71.20
53506;BME280;39388;50.936;6.848;2022-09-13T06:32:10;100413.00;;;18.92;71.04
53506;BME280;39388;50.936;6.848;2022-09-13T06:34:40;100418.06;;;18.95;70.91
53506;BME280;39388;50.936;6.848;2022-09-13T06:37:11;100397.13;;;18.96;70.67
53506;BME280;39388;50.936;6.848;2022-09-13T06:39:42;100412.38;;;19.06;70.68
53506;BME280;39388;50.936;6.848;2022-09-13T06:42:12;100413.06;;;19.09;70.81
53506;BME280;39388;50.936;6.848;2022-09-13T06:44:43;100413.78;;;19.13;70.68
53506;BME280;39388;50.936;6.848;2022-09-13T06:47:15;100412.81;;;19.16;70.39
53506;BME280;39388;50.936;6.848;2022-09-13T06:49:45;100408.13;;;19.22;70.52
53506;BME280;39388;50.936;6.848;2022-09-13T06:52:15;100408.00;;;19.25;70.28
53506;BME280;39388;50.936;6.848;2022-09-13T06:54:46;100411.19;;;19.32;70.27
53506;BME280;39388;50.936;6.848;2022-09-13T06:57:16;100416.13;;;19.38;70.29
53506;BME280;39388;50.936;6.848;2022-09-13T06:59:47;100419.47;;;19.42;70.22
53506;BME280;39388;50.936;6.848;2022-09-13T07:02:17;100420.03;;;19.49;69.84
53506;BME280;39388;50.936;6.848;2022-09-13T07:04:47;100413.81;;;19.51;69.90
53506;BME280;39388;50.936;6.848;2022-09-13T07:07:18;100406.88;;;19.50;70.10
53506;BME280;39388;50.936;6.848;2022-09-13T07:09:48;100416.91;;;19.60;70.32
53506;BME280;39388;50.936;6.848;2022-09-13T07:12:18;100421.75;;;19.67;70.43
53506;BME280;39388;50.936;6.848;2022-09-13T07:14:49;100419.88;;;19.71;70.43
53506;BME280;39388;50.936;6.848;2022-09-13T07:17:19;100420.34;;;19.79;70.24
53506;BME280;39388;50.936;6.848;2022-09-13T07:19:50;100417.50;;;19.84;69.86
53506;BME280;39388;50.936;6.848;2022-09-13T07:22:20;100419.66;;;19.93;69.62
53506;BME280;39388;50.936;6.848;2022-09-13T07:24:56;100419.28;;;20.01;69.37
53506;BME280;39388;50.936;6.848;2022-09-13T07:27:26;100412.69;;;20.11;69.39
53506;BME280;39388;50.936;6.848;2022-09-13T07:29:56;100415.63;;;20.23;69.08
53506;BME280;39388;50.936;6.848;2022-09-13T07:32:27;100411.59;;;20.33;68.99
53506;BME280;39388;50.936;6.848;2022-09-13T07:34:57;100412.00;;;20.43;68.54
53506;BME280;39388;50.936;6.848;2022-09-13T07:37:27;100411.53;;;20.52;68.20
53506;BME280;39388;50.936;6.848;2022-09-13T07:39:58;100412.91;;;20.59;67.81
53506;BME280;39388;50.936;6.848;2022-09-13T07:42:28;100411.75;;;20.65;67.39
53506;BME280;39388;50.936;6.848;2022-09-13T07:44:58;100416.44;;;20.76;67.45
53506;BME280;39388;50.936;6.848;2022-09-13T07:47:31;100418.41;;;20.88;67.58
53506;BME280;39388;50.936;6.848;2022-09-13T07:50:02;100406.84;;;20.92;67.71
53506;BME280;39388;50.936;6.848;2022-09-13T07:52:33;100416.56;;;21.06;67.44
53506;BME280;39388;50.936;6.848;2022-09-13T07:55:07;100415.50;;;21.11;67.46
53506;BME280;39388;50.936;6.848;2022-09-13T07:57:37;100424.88;;;21.15;66.95
53506;BME280;39388;50.936;6.848;2022-09-13T08:00:08;100429.88;;;21.19;67.33
53506;BME280;39388;50.936;6.848;2022-09-13T08:02:40;100426.00;;;21.27;66.92
53506;BME280;39388;50.936;6.848;2022-09-13T08:05:10;100422.88;;;21.36;67.27
53506;BME280;39388;50.936;6.848;2022-09-13T08:07:40;100417.72;;;21.50;66.97
53506;BME280;39388;50.936;6.848;2022-09-13T08:10:11;100413.69;;;21.61;66.89
53506;BME280;39388;50.936;6.848;2022-09-13T08:12:41;100423.91;;;21.65;66.13
53506;BME280;39388;50.936;6.848;2022-09-13T08:15:11;100419.81;;;21.76;65.94
53506;BME280;39388;50.936;6.848;2022-09-13T08:17:42;100420.75;;;21.91;65.75
53506;BME280;39388;50.936;6.848;2022-09-13T08:20:12;100419.19;;;22.03;64.92
53506;BME280;39388;50.936;6.848;2022-09-13T08:22:43;100419.19;;;22.19;64.43
53506;BME280;39388;50.936;6.848;2022-09-13T08:25:13;100423.59;;;22.33;63.09
53506;BME280;39388;50.936;6.848;2022-09-13T08:27:44;100422.03;;;22.44;62.67
53506;BME280;39388;50.936;6.848;2022-09-13T08:30:14;100427.69;;;22.53;62.55
53506;BME280;39388;50.936;6.848;2022-09-13T08:32:49;100419.34;;;22.60;62.56
53506;BME280;39388;50.936;6.848;2022-09-13T08:35:19;100417.94;;;22.69;62.29
53506;BME280;39388;50.936;6.848;2022-09-13T08:37:49;100424.41;;;22.78;61.82
53506;BME280;39388;50.936;6.848;2022-09-13T08:40:21;100412.22;;;22.77;60.79
53506;BME280;39388;50.936;6.848;2022-09-13T08:43:19;100426.75;;;22.83;60.12
53506;BME280;39388;50.936;6.848;2022-09-13T08:46:00;100418.41;;;22.90;60.64
53506;BME280;39388;50.936;6.848;2022-09-13T08:48:34;100425.28;;;23.07;60.65
53506;BME280;39388;50.936;6.848;2022-09-13T08:51:08;100417.09;;;23.27;59.85
53506;BME280;39388;50.936;6.848;2022-09-13T08:53:44;100429.28;;;23.42;58.50
53506;BME280;39388;50.936;6.848;2022-09-13T08:56:23;100424.38;;;23.50;58.04
53506;BME280;39388;50.936;6.848;2022-09-13T09:07:14;100430.47;;;23.78;56.80
53506;BME280;39388;50.936;6.848;2022-09-13T09:10:00;100435.91;;;23.90;56.41
53506;BME280;39388;50.936;6.848;2022-09-13T09:12:54;100430.34;;;23.94;55.79
53506;BME280;39388;50.936;6.848;2022-09-13T09:15:34;100425.44;;;24.03;55.46
53506;BME280;39388;50.936;6.848;2022-09-13T09:18:31;100423.22;;;24.09;54.96
53506;BME280;39388;50.936;6.848;2022-09-13T09:21:02;100420.59;;;24.09;55.31
53506;BME280;39388;50.936;6.848;2022-09-13T09:23:54;100430.72;;;24.16;54.97
53506;BME280;39388;50.936;6.848;2022-09-13T09:26:27;100419.22;;;24.17;55.22
53506;BME280;39388;50.936;6.848;2022-09-13T09:29:34;100423.91;;;24.26;55.02
53506;BME280;39388;50.936;6.848;2022-09-13T09:38:22;100428.34;;;24.38;55.21
53506;BME280;39388;50.936;6.848;2022-09-13T09:40:55;100422.00;;;24.41;55.53
53506;BME280;39388;50.936;6.848;2022-09-13T09:43:31;100424.97;;;24.49;55.47
53506;BME280;39388;50.936;6.848;2022-09-13T09:46:04;100416.75;;;24.54;55.33
53506;BME280;39388;50.936;6.848;2022-09-13T09:48:42;100419.84;;;24.61;54.87
53506;BME280;39388;50.936;6.848;2022-09-13T09:51:16;100419.63;;;24.64;54.47
53506;BME280;39388;50.936;6.848;2022-09-13T09:53:58;100414.13;;;24.67;54.38
53506;BME280;39388;50.936;6.848;2022-09-13T09:56:31;100417.72;;;24.79;54.34
53506;BME280;39388;50.936;6.848;2022-09-13T09:59:02;100419.09;;;24.84;53.97
53506;BME280;39388;50.936;6.848;2022-09-13T10:01:34;100415.16;;;24.90;53.63
53506;BME280;39388;50.936;6.848;2022-09-13T10:06:41;100414.09;;;25.05;53.31
53506;BME280;39388;50.936;6.848;2022-09-13T10:09:16;100415.44;;;25.11;53.05
53506;BME280;39388;50.936;6.848;2022-09-13T10:11:57;100415.63;;;25.21;52.62
53506;BME280;39388;50.936;6.848;2022-09-13T10:17:27;100415.50;;;25.35;52.24
53506;BME280;39388;50.936;6.848;2022-09-13T10:20:18;100403.91;;;25.38;52.44
53506;BME280;39388;50.936;6.848;2022-09-13T10:23:16;100405.59;;;25.39;51.92
53506;BME280;39388;50.936;6.848;2022-09-13T10:26:12;100402.22;;;25.37;51.99
53506;BME280;39388;50.936;6.848;2022-09-13T10:28:59;100409.47;;;25.46;51.95
53506;BME280;39388;50.936;6.848;2022-09-13T10:31:41;100396.88;;;25.50;52.50
53506;BME280;39388;50.936;6.848;2022-09-13T10:36:58;100401.78;;;25.43;52.30
53506;BME280;39388;50.936;6.848;2022-09-13T10:39:32;100400.31;;;25.39;51.93
53506;BME280;39388;50.936;6.848;2022-09-13T10:42:07;100388.50;;;25.32;51.91
53506;BME280;39388;50.936;6.848;2022-09-13T10:47:22;100385.53;;;25.37;51.32
53506;BME280;39388;50.936;6.848;2022-09-13T10:49:55;100386.38;;;25.37;51.24
53506;BME280;39388;50.936;6.848;2022-09-13T10:52:47;100381.94;;;25.38;50.99
53506;BME280;39388;50.936;6.848;2022-09-13T11:12:08;100377.63;;;25.85;49.52
53506;BME280;39388;50.936;6.848;2022-09-13T11:14:45;100382.41;;;25.91;49.30
53506;BME280;39388;50.936;6.848;2022-09-13T11:17:51;100368.25;;;25.92;48.86
53506;BME280;39388;50.936;6.848;2022-09-13T11:20:35;100366.94;;;25.98;48.68
53506;BME280;39388;50.936;6.848;2022-09-13T11:26:24;100357.66;;;26.17;48.88
53506;BME280;39388;50.936;6.848;2022-09-13T11:29:21;100362.84;;;26.30;49.01
53506;BME280;39388;50.936;6.848;2022-09-13T11:32:17;100354.91;;;26.30;49.19
53506;BME280;39388;50.936;6.848;2022-09-13T11:46:44;100337.50;;;27.07;46.69
53506;BME280;39388;50.936;6.848;2022-09-13T11:55:16;100347.38;;;27.37;45.69
53506;BME280;39388;50.936;6.848;2022-09-13T11:57:56;100340.41;;;27.36;45.13
53506;BME280;39388;50.936;6.848;2022-09-13T12:00:31;100340.00;;;27.41;45.19
53506;BME280;39388;50.936;6.848;2022-09-13T12:05:51;100343.63;;;27.40;44.52
53506;BME280;39388;50.936;6.848;2022-09-13T12:08:36;100338.72;;;27.35;44.09
53506;BME280;39388;50.936;6.848;2022-09-13T12:11:26;100333.03;;;27.40;45.09
53506;BME280;39388;50.936;6.848;2022-09-13T12:14:02;100331.44;;;27.48;45.06
53506;BME280;39388;50.936;6.848;2022-09-13T12:16:37;100333.38;;;27.58;45.17
53506;BME280;39388;50.936;6.848;2022-09-13T12:19:45;100329.63;;;27.60;44.60
53506;BME280;39388;50.936;6.848;2022-09-13T12:22:19;100329.00;;;27.68;44.88
53506;BME280;39388;50.936;6.848;2022-09-13T12:24:58;100312.97;;;27.70;44.94
53506;BME280;39388;50.936;6.848;2022-09-13T12:27:47;100312.47;;;27.76;44.25
53506;BME280;39388;50.936;6.848;2022-09-13T12:30:23;100313.34;;;27.65;44.90
53506;BME280;39388;50.936;6.848;2022-09-13T12:32:55;100304.81;;;27.61;44.85
53506;BME280;39388;50.936;6.848;2022-09-13T12:41:10;100306.75;;;27.59;44.32
53506;BME280;39388;50.936;6.848;2022-09-13T12:52:21;100292.47;;;27.51;44.17
53506;BME280;39388;50.936;6.848;2022-09-13T12:58:00;100292.66;;;27.59;44.19
53506;BME280;39388;50.936;6.848;2022-09-13T13:00:43;100290.63;;;27.62;44.11
53506;BME280;39388;50.936;6.848;2022-09-13T13:03:17;100287.44;;;27.69;43.83
53506;BME280;39388;50.936;6.848;2022-09-13T13:05:52;100291.25;;;27.76;44.29
53506;BME280;39388;50.936;6.848;2022-09-13T13:08:29;100290.38;;;27.87;43.55
53506;BME280;39388;50.936;6.848;2022-09-13T13:11:07;100284.53;;;27.93;43.71
53506;BME280;39388;50.936;6.848;2022-09-13T13:13:42;100285.75;;;27.89;43.34
53506;BME280;39388;50.936;6.848;2022-09-13T13:19:01;100279.31;;;27.82;43.21
53506;BME280;39388;50.936;6.848;2022-09-13T13:21:39;100283.00;;;27.69;43.60
53506;BME280;39388;50.936;6.848;2022-09-13T13:26:52;100282.81;;;27.50;44.13
53506;BME280;39388;50.936;6.848;2022-09-13T13:34:40;100278.34;;;27.29;45.12
53506;BME280;39388;50.936;6.848;2022-09-13T13:39:46;100273.22;;;27.16;44.95
53506;BME280;39388;50.936;6.848;2022-09-13T13:42:29;100279.00;;;27.21;45.26
53506;BME280;39388;50.936;6.848;2022-09-13T13:45:19;100283.75;;;27.27;44.69
53506;BME280;39388;50.936;6.848;2022-09-13T13:53:56;100265.84;;;27.52;44.79
53506;BME280;39388;50.936;6.848;2022-09-13T13:56:34;100264.78;;;27.76;45.04
53506;BME280;39388;50.936;6.848;2022-09-13T13:59:22;100262.75;;;27.89;43.83
53506;BME280;39388;50.936;6.848;2022-09-13T14:01:56;100259.66;;;27.84;43.89
53506;BME280;39388;50.936;6.848;2022-09-13T14:04:38;100255.63;;;27.90;43.46
53506;BME280;39388;50.936;6.848;2022-09-13T14:10:13;100241.31;;;28.02;42.74
53506;BME280;39388;50.936;6.848;2022-09-13T14:21:24;100239.03;;;27.88;44.44
53506;BME280;39388;50.936;6.848;2022-09-13T14:24:16;100239.03;;;27.88;44.35
53506;BME280;39388;50.936;6.848;2022-09-13T14:26:56;100243.00;;;27.93;44.33
53506;BME280;39388;50.936;6.848;2022-09-13T14:29:26;100236.13;;;27.91;44.34
53506;BME280;39388;50.936;6.848;2022-09-13T14:32:05;100235.88;;;27.94;44.52
53506;BME280;39388;50.936;6.848;2022-09-13T14:34:48;100232.00;;;27.98;45.01
53506;BME280;39388;50.936;6.848;2022-09-13T14:37:25;100238.31;;;28.07;44.30
53506;BME280;39388;50.936;6.848;2022-09-13T14:40:18;100236.75;;;28.04;43.55
53506;BME280;39388;50.936;6.848;2022-09-13T14:42:49;100229.03;;;28.01;43.13
53506;BME280;39388;50.936;6.848;2022-09-13T14:45:27;100233.00;;;28.07;43.23
53506;BME280;39388;50.936;6.848;2022-09-13T14:48:14;100238.16;;;28.08;42.77
53506;BME280;39388;50.936;6.848;2022-09-13T14:50:59;100241.38;;;28.12;42.56
53506;BME280;39388;50.936;6.848;2022-09-13T14:54:07;100230.66;;;28.14;42.77
53506;BME280;39388;50.936;6.848;2022-09-13T14:56:43;100226.72;;;28.08;42.48
53506;BME280;39388;50.936;6.848;2022-09-13T14:59:29;100238.09;;;27.99;42.79
53506;BME280;39388;50.936;6.848;2022-09-13T15:02:22;100228.84;;;27.83;43.17
53506;BME280;39388;50.936;6.848;2022-09-13T15:04:57;100233.69;;;27.78;43.84
53506;BME280;39388;50.936;6.848;2022-09-13T15:07:32;100236.72;;;27.73;44.07
53506;BME280;39388;50.936;6.848;2022-09-13T15:10:23;100233.66;;;27.68;43.92
53506;BME280;39388;50.936;6.848;2022-09-13T15:18:21;100229.88;;;27.50;45.07
53506;BME280;39388;50.936;6.848;2022-09-13T15:20:59;100231.38;;;27.42;45.55
53506;BME280;39388;50.936;6.848;2022-09-13T15:23:36;100233.78;;;27.34;45.68
53506;BME280;39388;50.936;6.848;2022-09-13T15:31:21;100225.72;;;27.14;45.81
53506;BME280;39388;50.936;6.848;2022-09-13T15:34:20;100243.06;;;27.07;46.15
53506;BME280;39388;50.936;6.848;2022-09-13T15:37:08;100246.34;;;26.99;46.45
53506;BME280;39388;50.936;6.848;2022-09-13T15:39:43;100243.09;;;26.96;46.01
53506;BME280;39388;50.936;6.848;2022-09-13T15:42:15;100244.56;;;26.89;46.16
53506;BME280;39388;50.936;6.848;2022-09-13T15:44:46;100244.09;;;26.83;46.53
53506;BME280;39388;50.936;6.848;2022-09-13T15:47:17;100243.47;;;26.80;46.76
53506;BME280;39388;50.936;6.848;2022-09-13T15:49:49;100244.22;;;26.70;47.21
53506;BME280;39388;50.936;6.848;2022-09-13T15:52:21;100234.25;;;26.63;47.74
53506;BME280;39388;50.936;6.848;2022-09-13T15:54:52;100247.63;;;26.61;48.40
53506;BME280;39388;50.936;6.848;2022-09-13T15:57:24;100240.16;;;26.55;48.42
53506;BME280;39388;50.936;6.848;2022-09-13T15:59:55;100244.13;;;26.49;49.08
53506;BME280;39388;50.936;6.848;2022-09-13T16:02:30;100241.88;;;26.45;49.02
53506;BME280;39388;50.936;6.848;2022-09-13T16:05:01;100238.88;;;26.38;49.14
53506;BME280;39388;50.936;6.848;2022-09-13T16:07:31;100243.56;;;26.34;49.81
53506;BME280;39388;50.936;6.848;2022-09-13T16:10:01;100243.44;;;26.24;49.94
53506;BME280;39388;50.936;6.848;2022-09-13T16:12:32;100248.72;;;26.24;50.13
53506;BME280;39388;50.936;6.848;2022-09-13T16:15:03;100242.13;;;26.19;50.47
53506;BME280;39388;50.936;6.848;2022-09-13T16:17:34;100240.69;;;26.15;50.69
53506;BME280;39388;50.936;6.848;2022-09-13T16:20:05;100243.56;;;26.11;50.62
53506;BME280;39388;50.936;6.848;2022-09-13T16:22:37;100235.22;;;26.05;50.87
53506;BME280;39388;50.936;6.848;2022-09-13T16:25:10;100229.94;;;25.93;51.16
53506;BME280;39388;50.936;6.848;2022-09-13T16:27:42;100244.47;;;25.99;51.13
53506;BME280;39388;50.936;6.848;2022-09-13T16:30:16;100254.31;;;25.97;51.45
53506;BME280;39388;50.936;6.848;2022-09-13T16:32:47;100246.03;;;25.90;51.30
53506;BME280;39388;50.936;6.848;2022-09-13T16:35:18;100244.84;;;25.83;51.76
53506;BME280;39388;50.936;6.848;2022-09-13T16:37:48;100247.84;;;25.78;51.86